sensor_id;sensor_type;location;lat;lon;timestamp;temperature;humidity
18101;DHT22;9177;49.156;8.142;2024-03-07T00:00:36;18.60;94.90
18101;DHT22;9177;49.156;8.142;2024-03-07T00:03:05;18.60;94.90
18101;DHT22;9177;49.156;8.142;2024-03-07T00:05:32;18.60;94.90
18101;DHT22;9177;49.156;8.142;2024-03-07T00:07:58;18.60;94.90
18101;DHT22;9177;49.156;8.142;2024-03-07T00:10:25;18.60;94.90
18101;DHT22;9177;49.156;8.142;2024-03-07T00:12:52;18.60;94.90
18101;DHT22;9177;49.156;8.142;2024-03-07T00:15:19;18.60;94.90
18101;DHT22;9177;49.156;8.142;2024-03-07T00:17:46;18.60;94.80
18101;DHT22;9177;49.156;8.142;2024-03-07T00:20:15;18.60;94.80
18101;DHT22;9177;49.156;8.142;2024-03-07T00:22:44;18.60;94.80
18101;DHT22;9177;49.156;8.142;2024-03-07T00:25:11;18.50;94.80
18101;DHT22;9177;49.156;8.142;2024-03-07T00:27:40;18.60;94.80
18101;DHT22;9177;49.156;8.142;2024-03-07T00:30:08;18.60;94.80
18101;DHT22;9177;49.156;8.142;2024-03-07T00:32:35;18.50;94.80
18101;DHT22;9177;49.156;8.142;2024-03-07T00:35:05;18.50;94.80
18101;DHT22;9177;49.156;8.142;2024-03-07T00:37:35;18.50;94.70
18101;DHT22;9177;49.156;8.142;2024-03-07T00:40:02;18.50;94.80
18101;DHT22;9177;49.156;8.142;2024-03-07T00:42:30;18.50;94.80
18101;DHT22;9177;49.156;8.142;2024-03-07T00:44:56;18.50;94.70
18101;DHT22;9177;49.156;8.142;2024-03-07T00:47:23;18.50;94.70
18101;DHT22;9177;49.156;8.142;2024-03-07T00:49:53;18.50;94.60
18101;DHT22;9177;49.156;8.142;2024-03-07T00:52:20;18.50;94.60
18101;DHT22;9177;49.156;8.142;2024-03-07T00:54:48;18.50;94.60
18101;DHT22;9177;49.156;8.142;2024-03-07T00:57:15;18.50;94.60
18101;DHT22;9177;49.156;8.142;2024-03-07T00:59:42;18.50;94.60
18101;DHT22;9177;49.156;8.142;2024-03-07T01:02:09;18.50;94.60
18101;DHT22;9177;49.156;8.142;2024-03-07T01:04:36;18.50;94.60
18101;DHT22;9177;49.156;8.142;2024-03-07T01:07:03;18.50;94.60
18101;DHT22;9177;49.156;8.142;2024-03-07T01:09:30;18.50;94.60
18101;DHT22;9177;49.156;8.142;2024-03-07T01:11:59;18.50;94.60
18101;DHT22;9177;49.156;8.142;2024-03-07T01:14:25;18.40;94.50
18101;DHT22;9177;49.156;8.142;2024-03-07T01:16:52;18.50;94.50
18101;DHT22;9177;49.156;8.142;2024-03-07T01:19:19;18.50;94.50
18101;DHT22;9177;49.156;8.142;2024-03-07T01:21:46;18.50;94.50
18101;DHT22;9177;49.156;8.142;2024-03-07T01:24:13;18.50;94.50
18101;DHT22;9177;49.156;8.142;2024-03-07T01:26:43;18.40;94.40
18101;DHT22;9177;49.156;8.142;2024-03-07T01:29:12;18.50;94.50
18101;DHT22;9177;49.156;8.142;2024-03-07T01:31:39;18.40;94.40
18101;DHT22;9177;49.156;8.142;2024-03-07T01:34:06;18.40;94.40
18101;DHT22;9177;49.156;8.142;2024-03-07T01:36:33;18.40;94.40
18101;DHT22;9177;49.156;8.142;2024-03-07T01:39:00;18.40;94.40
18101;DHT22;9177;49.156;8.142;2024-03-07T01:41:29;18.40;94.40
18101;DHT22;9177;49.156;8.142;2024-03-07T01:43:56;18.40;94.40
18101;DHT22;9177;49.156;8.142;2024-03-07T01:46:24;18.40;94.30
18101;DHT22;9177;49.156;8.142;2024-03-07T01:48:51;18.40;94.40
18101;DHT22;9177;49.156;8.142;2024-03-07T01:51:18;18.40;94.30
18101;DHT22;9177;49.156;8.142;2024-03-07T01:53:47;18.40;94.30
18101;DHT22;9177;49.156;8.142;2024-03-07T01:56:14;18.40;94.30
18101;DHT22;9177;49.156;8.142;2024-03-07T01:58:41;18.40;94.30
18101;DHT22;9177;49.156;8.142;2024-03-07T02:01:08;18.40;94.30
18101;DHT22;9177;49.156;8.142;2024-03-07T02:03:37;18.40;94.30
18101;DHT22;9177;49.156;8.142;2024-03-07T02:06:04;18.40;94.30
18101;DHT22;9177;49.156;8.142;2024-03-07T02:08:31;18.40;94.20
18101;DHT22;9177;49.156;8.142;2024-03-07T02:10:58;18.40;94.20
18101;DHT22;9177;49.156;8.142;2024-03-07T02:13:25;18.40;94.20
18101;DHT22;9177;49.156;8.142;2024-03-07T02:15:52;18.30;94.20
18101;DHT22;9177;49.156;8.142;2024-03-07T02:18:19;18.40;94.20
18101;DHT22;9177;49.156;8.142;2024-03-07T02:20:48;18.30;94.20
18101;DHT22;9177;49.156;8.142;2024-03-07T02:23:15;18.40;94.20
18101;DHT22;9177;49.156;8.142;2024-03-07T02:25:42;18.40;94.20
18101;DHT22;9177;49.156;8.142;2024-03-07T02:28:10;18.40;94.20
18101;DHT22;9177;49.156;8.142;2024-03-07T02:30:37;18.40;94.10
18101;DHT22;9177;49.156;8.142;2024-03-07T02:33:04;18.40;94.20
18101;DHT22;9177;49.156;8.142;2024-03-07T02:35:33;18.40;94.20
18101;DHT22;9177;49.156;8.142;2024-03-07T02:38:03;18.40;94.10
18101;DHT22;9177;49.156;8.142;2024-03-07T02:40:30;18.40;94.20
18101;DHT22;9177;49.156;8.142;2024-03-07T02:42:58;18.30;94.10
18101;DHT22;9177;49.156;8.142;2024-03-07T02:45:25;18.30;94.10
18101;DHT22;9177;49.156;8.142;2024-03-07T02:47:52;18.30;94.10
18101;DHT22;9177;49.156;8.142;2024-03-07T02:50:19;18.30;94.10
18101;DHT22;9177;49.156;8.142;2024-03-07T02:52:48;18.30;94.00
18101;DHT22;9177;49.156;8.142;2024-03-07T02:55:16;18.30;94.10
18101;DHT22;9177;49.156;8.142;2024-03-07T02:57:44;18.30;94.00
18101;DHT22;9177;49.156;8.142;2024-03-07T03:00:12;18.30;94.10
18101;DHT22;9177;49.156;8.142;2024-03-07T03:02:46;18.30;94.00
18101;DHT22;9177;49.156;8.142;2024-03-07T03:05:14;18.30;94.00
18101;DHT22;9177;49.156;8.142;2024-03-07T03:07:41;18.30;94.00
18101;DHT22;9177;49.156;8.142;2024-03-07T03:10:20;18.30;94.00
18101;DHT22;9177;49.156;8.142;2024-03-07T03:12:51;18.30;94.00
18101;DHT22;9177;49.156;8.142;2024-03-07T03:15:19;18.30;94.00
18101;DHT22;9177;49.156;8.142;2024-03-07T03:17:46;18.30;94.00
18101;DHT22;9177;49.156;8.142;2024-03-07T03:20:14;18.30;94.00
18101;DHT22;9177;49.156;8.142;2024-03-07T03:22:50;18.30;94.00
18101;DHT22;9177;49.156;8.142;2024-03-07T03:25:18;18.20;93.90
18101;DHT22;9177;49.156;8.142;2024-03-07T03:27:46;18.30;94.00
18101;DHT22;9177;49.156;8.142;2024-03-07T03:30:13;18.20;93.90
18101;DHT22;9177;49.156;8.142;2024-03-07T03:32:40;18.30;93.90
18101;DHT22;9177;49.156;8.142;2024-03-07T03:35:08;18.20;93.90
18101;DHT22;9177;49.156;8.142;2024-03-07T03:37:39;18.20;93.90
18101;DHT22;9177;49.156;8.142;2024-03-07T03:40:08;18.20;93.90
18101;DHT22;9177;49.156;8.142;2024-03-07T03:42:36;18.20;93.90
18101;DHT22;9177;49.156;8.142;2024-03-07T03:45:07;18.20;93.90
18101;DHT22;9177;49.156;8.142;2024-03-07T03:47:34;18.20;93.90
18101;DHT22;9177;49.156;8.142;2024-03-07T03:50:03;18.20;93.80
18101;DHT22;9177;49.156;8.142;2024-03-07T03:52:30;18.20;93.80
18101;DHT22;9177;49.156;8.142;2024-03-07T03:54:58;18.20;93.80
18101;DHT22;9177;49.156;8.142;2024-03-07T03:57:25;18.20;93.80
18101;DHT22;9177;49.156;8.142;2024-03-07T03:59:52;18.20;93.80
18101;DHT22;9177;49.156;8.142;2024-03-07T04:02:21;18.20;93.80
18101;DHT22;9177;49.156;8.142;2024-03-07T04:04:49;18.20;93.80
18101;DHT22;9177;49.156;8.142;2024-03-07T04:07:17;18.20;93.80
18101;DHT22;9177;49.156;8.142;2024-03-07T04:09:44;18.20;93.80
18101;DHT22;9177;49.156;8.142;2024-03-07T04:12:12;18.20;93.80
18101;DHT22;9177;49.156;8.142;2024-03-07T04:14:39;18.20;93.70
18101;DHT22;9177;49.156;8.142;2024-03-07T04:17:06;18.20;93.80
18101;DHT22;9177;49.156;8.142;2024-03-07T04:19:35;18.20;93.80
18101;DHT22;9177;49.156;8.142;2024-03-07T04:22:04;18.20;93.70
18101;DHT22;9177;49.156;8.142;2024-03-07T04:24:31;18.20;93.80
18101;DHT22;9177;49.156;8.142;2024-03-07T04:26:59;18.20;93.70
18101;DHT22;9177;49.156;8.142;2024-03-07T04:29:26;18.20;93.70
18101;DHT22;9177;49.156;8.142;2024-03-07T04:31:53;18.20;93.70
18101;DHT22;9177;49.156;8.142;2024-03-07T04:34:20;18.20;93.60
18101;DHT22;9177;49.156;8.142;2024-03-07T04:36:48;18.20;93.60
18101;DHT22;9177;49.156;8.142;2024-03-07T04:39:15;18.20;93.50
18101;DHT22;9177;49.156;8.142;2024-03-07T04:41:52;18.20;93.50
18101;DHT22;9177;49.156;8.142;2024-03-07T04:44:19;18.30;93.50
18101;DHT22;9177;49.156;8.142;2024-03-07T04:46:48;18.30;93.50
18101;DHT22;9177;49.156;8.142;2024-03-07T04:49:21;18.40;93.40
18101;DHT22;9177;49.156;8.142;2024-03-07T04:51:50;18.30;93.30
18101;DHT22;9177;49.156;8.142;2024-03-07T04:54:17;18.30;93.30
18101;DHT22;9177;49.156;8.142;2024-03-07T04:56:44;18.40;93.30
18101;DHT22;9177;49.156;8.142;2024-03-07T04:59:11;18.40;93.30
18101;DHT22;9177;49.156;8.142;2024-03-07T05:01:38;18.40;93.30
18101;DHT22;9177;49.156;8.142;2024-03-07T05:04:05;18.40;93.20
18101;DHT22;9177;49.156;8.142;2024-03-07T05:06:33;18.50;93.30
18101;DHT22;9177;49.156;8.142;2024-03-07T05:09:02;18.50;93.10
18101;DHT22;9177;49.156;8.142;2024-03-07T05:11:29;18.40;93.20
18101;DHT22;9177;49.156;8.142;2024-03-07T05:13:56;18.50;93.20
18101;DHT22;9177;49.156;8.142;2024-03-07T05:16:25;18.40;93.20
18101;DHT22;9177;49.156;8.142;2024-03-07T05:18:52;18.50;93.20
18101;DHT22;9177;49.156;8.142;2024-03-07T05:21:20;18.50;93.20
18101;DHT22;9177;49.156;8.142;2024-03-07T05:24:07;18.40;93.10
18101;DHT22;9177;49.156;8.142;2024-03-07T05:26:35;18.40;93.10
18101;DHT22;9177;49.156;8.142;2024-03-07T05:29:06;18.40;93.10
18101;DHT22;9177;49.156;8.142;2024-03-07T05:31:34;18.40;93.10
18101;DHT22;9177;49.156;8.142;2024-03-07T05:34:01;18.40;93.20
18101;DHT22;9177;49.156;8.142;2024-03-07T05:36:30;18.40;93.20
18101;DHT22;9177;49.156;8.142;2024-03-07T05:38:57;18.40;93.20
18101;DHT22;9177;49.156;8.142;2024-03-07T05:41:26;18.40;93.10
18101;DHT22;9177;49.156;8.142;2024-03-07T05:43:55;18.40;93.20
18101;DHT22;9177;49.156;8.142;2024-03-07T05:46:22;18.40;93.20
18101;DHT22;9177;49.156;8.142;2024-03-07T05:48:49;18.40;93.10
18101;DHT22;9177;49.156;8.142;2024-03-07T05:51:18;18.30;93.10
18101;DHT22;9177;49.156;8.142;2024-03-07T05:53:47;18.30;92.90
18101;DHT22;9177;49.156;8.142;2024-03-07T05:56:14;18.30;93.20
18101;DHT22;9177;49.156;8.142;2024-03-07T05:58:42;18.40;92.90
18101;DHT22;9177;49.156;8.142;2024-03-07T06:01:09;18.40;93.10
18101;DHT22;9177;49.156;8.142;2024-03-07T06:03:36;18.40;92.90
18101;DHT22;9177;49.156;8.142;2024-03-07T06:06:03;18.30;92.90
18101;DHT22;9177;49.156;8.142;2024-03-07T06:08:32;18.40;93.00
18101;DHT22;9177;49.156;8.142;2024-03-07T06:10:58;18.40;92.90
18101;DHT22;9177;49.156;8.142;2024-03-07T06:13:26;18.40;92.90
18101;DHT22;9177;49.156;8.142;2024-03-07T06:15:54;18.40;92.90
18101;DHT22;9177;49.156;8.142;2024-03-07T06:18:21;18.40;92.80
18101;DHT22;9177;49.156;8.142;2024-03-07T06:20:48;18.40;92.90
18101;DHT22;9177;49.156;8.142;2024-03-07T06:23:15;18.40;92.90
18101;DHT22;9177;49.156;8.142;2024-03-07T06:25:42;18.40;93.10
18101;DHT22;9177;49.156;8.142;2024-03-07T06:28:16;18.40;92.80
18101;DHT22;9177;49.156;8.142;2024-03-07T06:30:44;18.40;92.90
18101;DHT22;9177;49.156;8.142;2024-03-07T06:33:14;18.40;92.90
18101;DHT22;9177;49.156;8.142;2024-03-07T06:35:43;18.40;92.90
18101;DHT22;9177;49.156;8.142;2024-03-07T06:38:10;18.40;92.90
18101;DHT22;9177;49.156;8.142;2024-03-07T06:40:37;18.40;92.90
18101;DHT22;9177;49.156;8.142;2024-03-07T06:43:06;18.40;93.00
18101;DHT22;9177;49.156;8.142;2024-03-07T06:45:35;18.40;92.90
18101;DHT22;9177;49.156;8.142;2024-03-07T06:48:03;18.40;92.90
18101;DHT22;9177;49.156;8.142;2024-03-07T06:50:34;18.40;92.90
18101;DHT22;9177;49.156;8.142;2024-03-07T06:53:01;18.40;92.90
18101;DHT22;9177;49.156;8.142;2024-03-07T06:55:28;18.30;92.90
18101;DHT22;9177;49.156;8.142;2024-03-07T06:57:55;18.40;92.90
18101;DHT22;9177;49.156;8.142;2024-03-07T07:00:22;18.40;92.90
18101;DHT22;9177;49.156;8.142;2024-03-07T07:02:49;18.40;92.90
18101;DHT22;9177;49.156;8.142;2024-03-07T07:05:16;18.40;92.90
18101;DHT22;9177;49.156;8.142;2024-03-07T07:07:47;18.40;92.90
18101;DHT22;9177;49.156;8.142;2024-03-07T07:10:14;18.50;93.00
18101;DHT22;9177;49.156;8.142;2024-03-07T07:12:43;18.50;92.90
18101;DHT22;9177;49.156;8.142;2024-03-07T07:15:11;18.50;92.80
18101;DHT22;9177;49.156;8.142;2024-03-07T07:17:38;18.50;92.80
18101;DHT22;9177;49.156;8.142;2024-03-07T07:20:06;18.50;92.80
18101;DHT22;9177;49.156;8.142;2024-03-07T07:22:36;18.60;92.70
18101;DHT22;9177;49.156;8.142;2024-03-07T07:25:06;18.60;92.70
18101;DHT22;9177;49.156;8.142;2024-03-07T07:27:40;18.60;92.70
18101;DHT22;9177;49.156;8.142;2024-03-07T07:30:08;18.60;92.70
18101;DHT22;9177;49.156;8.142;2024-03-07T07:32:35;18.70;92.70
18101;DHT22;9177;49.156;8.142;2024-03-07T07:35:02;18.70;92.70
18101;DHT22;9177;49.156;8.142;2024-03-07T07:37:31;18.70;92.70
18101;DHT22;9177;49.156;8.142;2024-03-07T07:39:58;18.70;92.70
18101;DHT22;9177;49.156;8.142;2024-03-07T07:42:26;18.70;92.70
18101;DHT22;9177;49.156;8.142;2024-03-07T07:44:53;18.80;92.60
18101;DHT22;9177;49.156;8.142;2024-03-07T07:47:20;18.80;92.60
18101;DHT22;9177;49.156;8.142;2024-03-07T07:49:47;18.80;92.60
18101;DHT22;9177;49.156;8.142;2024-03-07T07:52:14;18.80;92.60
18101;DHT22;9177;49.156;8.142;2024-03-07T07:54:42;18.80;92.50
18101;DHT22;9177;49.156;8.142;2024-03-07T07:57:09;18.80;92.50
18101;DHT22;9177;49.156;8.142;2024-03-07T07:59:37;18.80;92.50
18101;DHT22;9177;49.156;8.142;2024-03-07T08:02:05;18.80;92.50
18101;DHT22;9177;49.156;8.142;2024-03-07T08:04:32;18.80;92.50
18101;DHT22;9177;49.156;8.142;2024-03-07T08:06:59;18.80;92.40
18101;DHT22;9177;49.156;8.142;2024-03-07T08:09:26;18.90;92.40
18101;DHT22;9177;49.156;8.142;2024-03-07T08:11:53;18.90;92.50
18101;DHT22;9177;49.156;8.142;2024-03-07T08:14:20;18.90;92.40
18101;DHT22;9177;49.156;8.142;2024-03-07T08:16:50;18.90;92.40
18101;DHT22;9177;49.156;8.142;2024-03-07T08:19:17;18.90;92.40
18101;DHT22;9177;49.156;8.142;2024-03-07T08:21:44;18.90;92.40
18101;DHT22;9177;49.156;8.142;2024-03-07T08:24:11;18.90;92.30
18101;DHT22;9177;49.156;8.142;2024-03-07T08:26:37;18.90;92.30
18101;DHT22;9177;49.156;8.142;2024-03-07T08:29:09;18.90;92.30
18101;DHT22;9177;49.156;8.142;2024-03-07T08:31:37;19.00;92.30
18101;DHT22;9177;49.156;8.142;2024-03-07T08:34:05;19.00;92.30
18101;DHT22;9177;49.156;8.142;2024-03-07T08:36:32;19.00;92.50
18101;DHT22;9177;49.156;8.142;2024-03-07T08:39:01;19.00;92.70
18101;DHT22;9177;49.156;8.142;2024-03-07T08:41:29;19.00;92.80
18101;DHT22;9177;49.156;8.142;2024-03-07T08:43:56;19.00;92.80
18101;DHT22;9177;49.156;8.142;2024-03-07T08:46:24;19.00;92.80
18101;DHT22;9177;49.156;8.142;2024-03-07T08:48:51;19.10;92.90
18101;DHT22;9177;49.156;8.142;2024-03-07T08:51:19;19.10;92.80
18101;DHT22;9177;49.156;8.142;2024-03-07T08:53:46;19.10;92.80
18101;DHT22;9177;49.156;8.142;2024-03-07T08:56:13;19.20;92.80
18101;DHT22;9177;49.156;8.142;2024-03-07T08:58:39;19.10;92.80
18101;DHT22;9177;49.156;8.142;2024-03-07T09:01:06;19.20;92.80
18101;DHT22;9177;49.156;8.142;2024-03-07T09:03:33;19.20;92.80
18101;DHT22;9177;49.156;8.142;2024-03-07T09:06:02;19.20;92.80
18101;DHT22;9177;49.156;8.142;2024-03-07T09:08:31;19.20;92.80
18101;DHT22;9177;49.156;8.142;2024-03-07T09:10:58;19.20;92.80
18101;DHT22;9177;49.156;8.142;2024-03-07T09:13:25;19.20;92.90
18101;DHT22;9177;49.156;8.142;2024-03-07T09:15:52;19.10;92.80
18101;DHT22;9177;49.156;8.142;2024-03-07T09:18:19;19.10;92.80
18101;DHT22;9177;49.156;8.142;2024-03-07T09:20:48;19.10;92.80
18101;DHT22;9177;49.156;8.142;2024-03-07T09:23:15;19.10;92.80
18101;DHT22;9177;49.156;8.142;2024-03-07T09:25:43;19.10;92.70
18101;DHT22;9177;49.156;8.142;2024-03-07T09:28:11;19.10;92.70
18101;DHT22;9177;49.156;8.142;2024-03-07T09:30:38;19.10;92.70
18101;DHT22;9177;49.156;8.142;2024-03-07T09:33:05;19.00;92.70
18101;DHT22;9177;49.156;8.142;2024-03-07T09:35:36;19.00;92.70
18101;DHT22;9177;49.156;8.142;2024-03-07T09:38:03;19.00;92.70
18101;DHT22;9177;49.156;8.142;2024-03-07T09:40:32;19.00;92.70
18101;DHT22;9177;49.156;8.142;2024-03-07T09:43:01;19.00;92.70
18101;DHT22;9177;49.156;8.142;2024-03-07T09:45:29;19.00;92.70
18101;DHT22;9177;49.156;8.142;2024-03-07T09:47:57;19.00;92.70
18101;DHT22;9177;49.156;8.142;2024-03-07T09:50:26;19.00;92.70
18101;DHT22;9177;49.156;8.142;2024-03-07T09:52:56;19.00;92.70
18101;DHT22;9177;49.156;8.142;2024-03-07T09:55:25;19.00;92.70
18101;DHT22;9177;49.156;8.142;2024-03-07T09:57:53;19.00;92.70
18101;DHT22;9177;49.156;8.142;2024-03-07T10:00:22;19.10;92.60
18101;DHT22;9177;49.156;8.142;2024-03-07T10:02:56;19.00;92.50
18101;DHT22;9177;49.156;8.142;2024-03-07T10:05:26;19.00;92.50
18101;DHT22;9177;49.156;8.142;2024-03-07T10:07:55;19.00;92.60
18101;DHT22;9177;49.156;8.142;2024-03-07T10:10:22;19.00;92.60
18101;DHT22;9177;49.156;8.142;2024-03-07T10:12:50;19.00;92.60
18101;DHT22;9177;49.156;8.142;2024-03-07T10:15:19;19.10;92.70
18101;DHT22;9177;49.156;8.142;2024-03-07T10:17:48;19.10;92.60
18101;DHT22;9177;49.156;8.142;2024-03-07T10:20:19;19.10;92.60
18101;DHT22;9177;49.156;8.142;2024-03-07T10:22:48;19.20;92.50
18101;DHT22;9177;49.156;8.142;2024-03-07T10:25:17;19.20;92.40
18101;DHT22;9177;49.156;8.142;2024-03-07T10:27:46;19.30;92.40
18101;DHT22;9177;49.156;8.142;2024-03-07T10:30:14;19.40;92.40
18101;DHT22;9177;49.156;8.142;2024-03-07T10:32:47;19.40;92.30
18101;DHT22;9177;49.156;8.142;2024-03-07T10:35:20;19.40;92.30
18101;DHT22;9177;49.156;8.142;2024-03-07T10:37:50;19.50;92.30
18101;DHT22;9177;49.156;8.142;2024-03-07T10:40:17;19.50;92.30
18101;DHT22;9177;49.156;8.142;2024-03-07T10:42:45;19.50;92.20
18101;DHT22;9177;49.156;8.142;2024-03-07T10:45:17;19.60;92.20
18101;DHT22;9177;49.156;8.142;2024-03-07T10:47:53;19.60;92.10
18101;DHT22;9177;49.156;8.142;2024-03-07T10:50:30;19.70;92.10
18101;DHT22;9177;49.156;8.142;2024-03-07T10:53:08;19.70;92.10
18101;DHT22;9177;49.156;8.142;2024-03-07T10:55:40;19.60;92.00
18101;DHT22;9177;49.156;8.142;2024-03-07T11:01:01;19.60;92.10
18101;DHT22;9177;49.156;8.142;2024-03-07T11:03:31;19.60;92.20
18101;DHT22;9177;49.156;8.142;2024-03-07T11:06:00;19.50;92.20
18101;DHT22;9177;49.156;8.142;2024-03-07T11:08:32;19.50;92.20
18101;DHT22;9177;49.156;8.142;2024-03-07T11:11:01;19.50;92.30
18101;DHT22;9177;49.156;8.142;2024-03-07T11:13:30;19.40;92.30
18101;DHT22;9177;49.156;8.142;2024-03-07T11:15:59;19.50;92.30
18101;DHT22;9177;49.156;8.142;2024-03-07T11:18:27;19.50;92.30
18101;DHT22;9177;49.156;8.142;2024-03-07T11:20:55;19.50;92.40
18101;DHT22;9177;49.156;8.142;2024-03-07T11:23:26;19.40;92.40
18101;DHT22;9177;49.156;8.142;2024-03-07T11:26:01;19.50;92.50
18101;DHT22;9177;49.156;8.142;2024-03-07T11:28:33;19.40;92.40
18101;DHT22;9177;49.156;8.142;2024-03-07T11:31:16;19.40;92.50
18101;DHT22;9177;49.156;8.142;2024-03-07T11:34:12;19.40;92.50
18101;DHT22;9177;49.156;8.142;2024-03-07T11:36:46;19.30;92.50
18101;DHT22;9177;49.156;8.142;2024-03-07T11:39:40;19.30;92.80
18101;DHT22;9177;49.156;8.142;2024-03-07T11:42:08;19.20;93.10
18101;DHT22;9177;49.156;8.142;2024-03-07T11:44:34;19.20;93.30
18101;DHT22;9177;49.156;8.142;2024-03-07T11:47:05;19.30;93.20
18101;DHT22;9177;49.156;8.142;2024-03-07T11:49:35;19.20;93.40
18101;DHT22;9177;49.156;8.142;2024-03-07T11:52:04;19.20;93.20
18101;DHT22;9177;49.156;8.142;2024-03-07T11:54:37;19.20;93.40
18101;DHT22;9177;49.156;8.142;2024-03-07T11:57:07;19.30;93.10
18101;DHT22;9177;49.156;8.142;2024-03-07T11:59:39;19.30;93.40
18101;DHT22;9177;49.156;8.142;2024-03-07T12:02:11;19.30;93.40
18101;DHT22;9177;49.156;8.142;2024-03-07T12:04:39;19.30;93.50
18101;DHT22;9177;49.156;8.142;2024-03-07T12:07:08;19.30;93.50
18101;DHT22;9177;49.156;8.142;2024-03-07T12:09:37;19.30;93.50
18101;DHT22;9177;49.156;8.142;2024-03-07T12:12:06;19.30;93.50
18101;DHT22;9177;49.156;8.142;2024-03-07T12:14:33;19.20;93.50
18101;DHT22;9177;49.156;8.142;2024-03-07T12:17:01;19.20;93.50
18101;DHT22;9177;49.156;8.142;2024-03-07T12:19:31;19.20;93.50
18101;DHT22;9177;49.156;8.142;2024-03-07T12:22:00;19.30;93.60
18101;DHT22;9177;49.156;8.142;2024-03-07T12:24:30;19.30;93.60
18101;DHT22;9177;49.156;8.142;2024-03-07T12:27:07;19.30;94.00
18101;DHT22;9177;49.156;8.142;2024-03-07T12:29:36;19.30;93.40
18101;DHT22;9177;49.156;8.142;2024-03-07T12:32:05;19.20;93.30
18101;DHT22;9177;49.156;8.142;2024-03-07T12:34:33;19.20;93.70
18101;DHT22;9177;49.156;8.142;2024-03-07T12:37:03;19.20;93.40
18101;DHT22;9177;49.156;8.142;2024-03-07T12:39:33;19.20;93.40
18101;DHT22;9177;49.156;8.142;2024-03-07T12:42:05;19.20;93.40
18101;DHT22;9177;49.156;8.142;2024-03-07T12:44:50;19.10;93.40
18101;DHT22;9177;49.156;8.142;2024-03-07T12:47:17;19.10;93.40
18101;DHT22;9177;49.156;8.142;2024-03-07T12:49:45;19.10;93.40
18101;DHT22;9177;49.156;8.142;2024-03-07T12:52:12;19.00;93.40
18101;DHT22;9177;49.156;8.142;2024-03-07T12:54:42;19.10;93.40
18101;DHT22;9177;49.156;8.142;2024-03-07T12:57:09;19.00;93.40
18101;DHT22;9177;49.156;8.142;2024-03-07T12:59:38;19.00;93.40
18101;DHT22;9177;49.156;8.142;2024-03-07T13:02:06;19.00;93.40
18101;DHT22;9177;49.156;8.142;2024-03-07T13:04:33;19.00;93.40
18101;DHT22;9177;49.156;8.142;2024-03-07T13:07:00;19.00;93.40
18101;DHT22;9177;49.156;8.142;2024-03-07T13:09:29;19.00;93.40
18101;DHT22;9177;49.156;8.142;2024-03-07T13:11:58;19.00;93.40
18101;DHT22;9177;49.156;8.142;2024-03-07T13:14:29;19.00;93.40
18101;DHT22;9177;49.156;8.142;2024-03-07T13:16:58;19.00;93.40
18101;DHT22;9177;49.156;8.142;2024-03-07T13:19:26;19.00;93.30
18101;DHT22;9177;49.156;8.142;2024-03-07T13:21:53;19.00;93.30
18101;DHT22;9177;49.156;8.142;2024-03-07T13:24:21;19.10;93.40
18101;DHT22;9177;49.156;8.142;2024-03-07T13:26:48;19.00;93.40
18101;DHT22;9177;49.156;8.142;2024-03-07T13:29:17;19.00;93.40
18101;DHT22;9177;49.156;8.142;2024-03-07T13:31:50;19.10;93.40
18101;DHT22;9177;49.156;8.142;2024-03-07T13:34:18;19.10;93.40
18101;DHT22;9177;49.156;8.142;2024-03-07T13:36:45;19.20;93.30
18101;DHT22;9177;49.156;8.142;2024-03-07T13:39:12;19.20;93.40
18101;DHT22;9177;49.156;8.142;2024-03-07T13:41:40;19.10;93.40
18101;DHT22;9177;49.156;8.142;2024-03-07T13:44:07;19.20;93.40
18101;DHT22;9177;49.156;8.142;2024-03-07T13:46:37;19.20;93.40
18101;DHT22;9177;49.156;8.142;2024-03-07T13:49:04;19.10;93.30
18101;DHT22;9177;49.156;8.142;2024-03-07T13:51:38;19.10;93.30
18101;DHT22;9177;49.156;8.142;2024-03-07T13:54:15;19.10;93.30
18101;DHT22;9177;49.156;8.142;2024-03-07T13:57:21;19.10;93.30
18101;DHT22;9177;49.156;8.142;2024-03-07T14:00:12;19.10;93.10
18101;DHT22;9177;49.156;8.142;2024-03-07T14:03:11;19.20;92.90
18101;DHT22;9177;49.156;8.142;2024-03-07T14:06:03;19.30;92.80
18101;DHT22;9177;49.156;8.142;2024-03-07T14:08:49;19.40;92.70
18101;DHT22;9177;49.156;8.142;2024-03-07T14:11:58;19.40;92.70
18101;DHT22;9177;49.156;8.142;2024-03-07T14:18:04;19.40;92.80
18101;DHT22;9177;49.156;8.142;2024-03-07T14:23:58;19.40;92.80
18101;DHT22;9177;49.156;8.142;2024-03-07T14:27:00;19.30;92.60
18101;DHT22;9177;49.156;8.142;2024-03-07T14:29:43;19.30;92.50
18101;DHT22;9177;49.156;8.142;2024-03-07T14:32:10;19.30;92.50
18101;DHT22;9177;49.156;8.142;2024-03-07T14:35:09;19.20;92.70
18101;DHT22;9177;49.156;8.142;2024-03-07T14:37:46;19.20;92.70
18101;DHT22;9177;49.156;8.142;2024-03-07T14:40:16;19.30;92.80
18101;DHT22;9177;49.156;8.142;2024-03-07T14:42:44;19.30;92.80
18101;DHT22;9177;49.156;8.142;2024-03-07T14:45:14;19.30;92.80
18101;DHT22;9177;49.156;8.142;2024-03-07T14:47:45;19.20;92.90
18101;DHT22;9177;49.156;8.142;2024-03-07T14:50:15;19.20;92.90
18101;DHT22;9177;49.156;8.142;2024-03-07T14:52:42;19.20;93.00
18101;DHT22;9177;49.156;8.142;2024-03-07T14:55:10;19.10;93.00
18101;DHT22;9177;49.156;8.142;2024-03-07T14:57:41;19.10;93.10
18101;DHT22;9177;49.156;8.142;2024-03-07T15:00:11;19.10;93.10
18101;DHT22;9177;49.156;8.142;2024-03-07T15:02:45;19.10;92.90
18101;DHT22;9177;49.156;8.142;2024-03-07T15:05:12;19.00;92.60
18101;DHT22;9177;49.156;8.142;2024-03-07T15:07:45;18.90;92.70
18101;DHT22;9177;49.156;8.142;2024-03-07T15:10:16;18.90;92.90
18101;DHT22;9177;49.156;8.142;2024-03-07T15:12:46;18.90;92.90
18101;DHT22;9177;49.156;8.142;2024-03-07T15:15:13;18.80;93.00
18101;DHT22;9177;49.156;8.142;2024-03-07T15:17:41;18.80;93.00
18101;DHT22;9177;49.156;8.142;2024-03-07T15:20:08;18.90;93.00
18101;DHT22;9177;49.156;8.142;2024-03-07T15:22:41;18.80;93.10
18101;DHT22;9177;49.156;8.142;2024-03-07T15:25:13;18.90;93.00
18101;DHT22;9177;49.156;8.142;2024-03-07T15:27:43;18.90;93.00
18101;DHT22;9177;49.156;8.142;2024-03-07T15:30:11;18.90;93.00
18101;DHT22;9177;49.156;8.142;2024-03-07T15:32:40;18.90;93.10
18101;DHT22;9177;49.156;8.142;2024-03-07T15:35:08;18.90;92.90
18101;DHT22;9177;49.156;8.142;2024-03-07T15:37:38;18.90;92.80
18101;DHT22;9177;49.156;8.142;2024-03-07T15:40:09;18.90;93.10
18101;DHT22;9177;49.156;8.142;2024-03-07T15:42:41;18.90;92.60
18101;DHT22;9177;49.156;8.142;2024-03-07T15:45:13;18.80;92.70
18101;DHT22;9177;49.156;8.142;2024-03-07T15:47:45;18.80;92.80
18101;DHT22;9177;49.156;8.142;2024-03-07T15:50:12;18.80;92.60
18101;DHT22;9177;49.156;8.142;2024-03-07T15:52:40;18.90;92.80
18101;DHT22;9177;49.156;8.142;2024-03-07T15:55:08;18.80;92.80
18101;DHT22;9177;49.156;8.142;2024-03-07T15:57:44;18.80;92.90
18101;DHT22;9177;49.156;8.142;2024-03-07T16:00:14;18.80;92.70
18101;DHT22;9177;49.156;8.142;2024-03-07T16:02:52;18.80;92.70
18101;DHT22;9177;49.156;8.142;2024-03-07T16:05:21;18.80;92.70
18101;DHT22;9177;49.156;8.142;2024-03-07T16:07:50;18.80;92.60